Time;durP1;ratioP1;P1;durP2;ratioP2;P2;SDS_P1;SDS_P2;PMS_P1;PMS_P2;Temp;Humidity;BMP_temperature;BMP_pressure;BME280_temperature;BME280_humidity;BME280_pressure;Samples;Min_cycle;Max_cycle;Signal;HPM_P1;HPM_P2
2022/10/20 00:01:32;;;;;;;1.33;0.80;;;20.30;59.50;;;;;;6269773;28;20520;-72
2022/10/20 00:04:33;;;;;;;1.08;0.70;;;20.30;59.50;;;;;;6269745;28;20127;-72
2022/10/20 00:07:34;;;;;;;1.20;0.70;;;20.30;59.50;;;;;;6270041;28;20045;-72
2022/10/20 00:10:34;;;;;;;0.95;0.63;;;20.30;59.50;;;;;;6260061;28;20033;-72
2022/10/20 00:13:36;;;;;;;0.85;0.60;;;20.30;59.50;;;;;;6244811;28;20087;-73
2022/10/20 00:16:39;;;;;;;0.90;0.68;;;20.30;59.50;;;;;;6246925;28;20020;-72
2022/10/20 00:19:40;;;;;;;1.40;0.70;;;20.30;59.40;;;;;;6268262;28;20451;-72
2022/10/20 00:22:40;;;;;;;0.70;0.60;;;20.30;59.40;;;;;;6268082;28;20028;-73
2022/10/20 00:25:41;;;;;;;0.95;0.80;;;20.30;59.40;;;;;;6268278;28;20047;-72
2022/10/20 00:28:42;;;;;;;0.60;0.50;;;20.30;59.40;;;;;;6259874;28;20049;-72
2022/10/20 00:31:44;;;;;;;0.98;0.73;;;20.30;59.40;;;;;;6243098;28;20033;-72
2022/10/20 00:34:44;;;;;;;0.77;0.60;;;20.30;59.40;;;;;;6242897;28;20041;-72
2022/10/20 00:37:46;;;;;;;0.73;0.68;;;20.30;59.40;;;;;;6244683;28;20594;-72
2022/10/20 00:40:47;;;;;;;0.70;0.70;;;20.30;59.40;;;;;;6244546;28;20022;-73
2022/10/20 00:43:51;;;;;;;0.52;0.52;;;20.30;59.30;;;;;;6243024;28;20071;-73
2022/10/20 00:46:52;;;;;;;1.17;0.60;;;20.30;59.30;;;;;;6259337;28;20052;-72
2022/10/20 00:49:55;;;;;;;1.33;0.60;;;20.30;59.30;;;;;;6242270;28;20125;-72
2022/10/20 00:52:58;;;;;;;1.05;0.60;;;20.30;59.30;;;;;;6253102;28;20104;-72
2022/10/20 00:56:00;;;;;;;0.90;0.60;;;20.30;59.30;;;;;;6268617;28;20025;-73
2022/10/20 00:59:02;;;;;;;0.80;0.55;;;20.30;59.30;;;;;;6267836;28;20036;-72
2022/10/20 01:02:05;;;;;;;0.70;0.60;;;20.30;59.30;;;;;;6268493;28;20112;-72
2022/10/20 01:05:07;;;;;;;0.65;0.60;;;20.30;59.30;;;;;;6268555;28;20390;-72
2022/10/20 01:08:07;;;;;;;0.63;0.40;;;20.30;59.30;;;;;;6267293;28;20028;-72
2022/10/20 01:11:15;;;;;;;1.17;0.55;;;20.30;59.30;;;;;;6245475;28;20033;-72
2022/10/20 01:14:22;;;;;;;0.77;0.60;;;20.30;59.30;;;;;;6242269;28;20025;-73
2022/10/20 01:17:43;;;;;;;0.98;0.75;;;20.30;59.30;;;;;;6242363;28;20075;-72
2022/10/20 01:20:47;;;;;;;1.10;0.70;;;20.30;59.30;;;;;;6252464;28;20120;-72
2022/10/20 01:24:29;;;;;;;0.73;0.52;;;20.30;59.30;;;;;;6243355;28;20029;-72
2022/10/20 01:27:54;;;;;;;1.05;0.60;;;20.30;59.30;;;;;;6248230;28;20021;-73
2022/10/20 01:30:58;;;;;;;0.70;0.60;;;20.30;59.30;;;;;;6246304;28;20028;-72
2022/10/20 01:34:11;;;;;;;1.27;0.75;;;20.30;59.30;;;;;;6242379;28;20024;-72
2022/10/20 01:37:15;;;;;;;0.80;0.50;;;20.30;59.30;;;;;;6242277;28;20079;-72
2022/10/20 01:40:29;;;;;;;0.50;0.50;;;20.30;59.30;;;;;;6242231;28;20033;-72
2022/10/20 01:43:34;;;;;;;0.98;0.88;;;20.30;59.20;;;;;;6243400;28;20033;-72
2022/10/20 01:46:38;;;;;;;1.23;0.73;;;20.30;59.20;;;;;;6242000;28;20060;-72
2022/10/20 01:49:42;;;;;;;0.77;0.60;;;20.30;59.20;;;;;;6241985;28;20125;-72
2022/10/20 01:52:43;;;;;;;0.50;0.50;;;20.30;59.20;;;;;;6242086;28;20037;-72
2022/10/20 01:55:44;;;;;;;0.70;0.60;;;20.30;59.20;;;;;;6241660;28;20026;-72
2022/10/20 01:58:59;;;;;;;0.80;0.52;;;20.30;59.20;;;;;;6243468;28;20026;-72
2022/10/20 02:02:25;;;;;;;0.70;0.55;;;20.30;59.20;;;;;;6241981;28;20697;-73
2022/10/20 02:05:32;;;;;;;0.77;0.60;;;20.30;59.20;;;;;;6242963;28;20056;-72
2022/10/20 02:08:45;;;;;;;0.90;0.50;;;20.30;59.20;;;;;;6242605;28;20033;-72
2022/10/20 02:12:04;;;;;;;0.60;0.50;;;20.30;59.20;;;;;;6246620;28;20366;-72
2022/10/20 02:15:06;;;;;;;0.80;0.52;;;20.30;59.20;;;;;;6270143;28;20033;-72
2022/10/20 02:18:10;;;;;;;1.50;0.60;;;20.30;59.20;;;;;;6272502;28;20052;-72
2022/10/20 02:21:11;;;;;;;1.65;0.45;;;20.30;59.20;;;;;;6270906;28;20029;-71
2022/10/20 02:24:14;;;;;;;1.00;0.63;;;20.30;59.20;;;;;;6270852;28;20704;-72
2022/10/20 02:27:17;;;;;;;0.50;0.43;;;20.30;59.20;;;;;;6271712;28;20385;-73
2022/10/20 02:30:18;;;;;;;0.80;0.70;;;20.30;59.20;;;;;;6270808;28;20478;-72
2022/10/20 02:33:21;;;;;;;0.70;0.63;;;20.30;59.10;;;;;;6270549;28;20017;-73
2022/10/20 02:36:26;;;;;;;0.80;0.60;;;20.30;59.20;;;;;;6270374;28;20028;-72
2022/10/20 02:39:27;;;;;;;0.50;0.43;;;20.30;59.20;;;;;;6270563;28;20025;-72
2022/10/20 02:42:28;;;;;;;0.93;0.60;;;20.30;59.20;;;;;;6270644;28;20021;-72
2022/10/20 02:45:28;;;;;;;1.13;0.70;;;20.30;59.20;;;;;;6271381;28;20025;-72
2022/10/20 02:48:29;;;;;;;0.40;0.40;;;20.30;59.20;;;;;;6270373;28;20434;-72
2022/10/20 02:51:30;;;;;;;0.63;0.55;;;20.30;59.10;;;;;;6271329;28;20040;-72
2022/10/20 02:54:30;;;;;;;0.93;0.63;;;20.30;59.20;;;;;;6270485;28;20036;-73
2022/10/20 02:57:32;;;;;;;0.60;0.50;;;20.30;59.10;;;;;;6271089;28;20086;-72
2022/10/20 03:00:33;;;;;;;0.93;0.65;;;20.30;59.10;;;;;;6269857;28;20029;-72
2022/10/20 03:03:34;;;;;;;0.93;0.68;;;20.30;59.10;;;;;;6269764;28;20057;-72
2022/10/20 03:06:35;;;;;;;0.60;0.40;;;20.30;59.10;;;;;;6271355;28;20021;-73
2022/10/20 03:09:36;;;;;;;0.65;0.50;;;20.30;59.10;;;;;;6270532;28;20556;-72
2022/10/20 03:12:36;;;;;;;0.82;0.63;;;20.30;59.10;;;;;;6271068;28;20048;-72
2022/10/20 03:15:37;;;;;;;0.73;0.52;;;20.30;59.10;;;;;;6270633;28;20025;-72
2022/10/20 03:18:38;;;;;;;0.70;0.70;;;20.30;59.10;;;;;;6269286;28;20437;-72
2022/10/20 03:21:39;;;;;;;0.70;0.50;;;20.30;59.10;;;;;;6269819;28;20044;-76
2022/10/20 03:24:40;;;;;;;1.02;0.63;;;20.30;59.10;;;;;;6271219;28;20738;-75
2022/10/20 03:27:41;;;;;;;0.55;0.50;;;20.30;59.10;;;;;;6269906;28;20032;-76
2022/10/20 03:30:42;;;;;;;1.02;0.70;;;20.30;59.10;;;;;;6270615;28;20029;-76
2022/10/20 03:33:43;;;;;;;0.75;0.60;;;20.30;59.10;;;;;;6270101;28;20036;-76
2022/10/20 03:36:43;;;;;;;0.60;0.60;;;20.30;59.10;;;;;;6270444;28;20036;-77
2022/10/20 03:39:44;;;;;;;0.50;0.40;;;20.30;59.10;;;;;;6271482;28;20051;-76
2022/10/20 03:42:45;;;;;;;0.80;0.60;;;20.30;59.10;;;;;;6269813;28;20116;-76
2022/10/20 03:45:45;;;;;;;0.60;0.43;;;20.20;59.00;;;;;;6270889;28;20025;-75
2022/10/20 03:48:46;;;;;;;0.57;0.50;;;20.30;59.10;;;;;;6269164;28;20041;-76
2022/10/20 03:51:47;;;;;;;0.73;0.63;;;20.30;59.10;;;;;;6271092;28;20458;-76
2022/10/20 03:54:50;;;;;;;0.75;0.68;;;20.30;59.10;;;;;;6270566;28;20029;-76
2022/10/20 03:57:50;;;;;;;0.73;0.50;;;20.30;59.10;;;;;;6271454;28;20440;-76
2022/10/20 04:00:53;;;;;;;0.32;0.30;;;20.20;59.00;;;;;;6270688;28;20385;-76
2022/10/20 04:03:53;;;;;;;0.68;0.60;;;20.30;59.10;;;;;;6269734;28;20123;-76
2022/10/20 04:06:54;;;;;;;0.60;0.45;;;20.30;59.10;;;;;;6269042;28;20029;-76
2022/10/20 04:09:55;;;;;;;0.95;0.50;;;20.30;59.00;;;;;;6269565;28;20166;-77
2022/10/20 04:13:01;;;;;;;0.73;0.50;;;20.30;59.10;;;;;;6269484;28;20024;-77
2022/10/20 04:16:01;;;;;;;1.17;0.68;;;20.30;59.10;;;;;;6269444;28;20017;-77
2022/10/20 04:19:02;;;;;;;0.70;0.60;;;20.30;59.10;;;;;;6269526;28;20029;-77
2022/10/20 04:22:03;;;;;;;0.57;0.50;;;20.30;59.10;;;;;;6270233;28;20029;-76
2022/10/20 04:25:04;;;;;;;0.68;0.50;;;20.30;59.10;;;;;;6271245;28;20540;-77
2022/10/20 04:28:05;;;;;;;0.43;0.40;;;20.20;59.00;;;;;;6270280;28;20029;-77
2022/10/20 04:31:06;;;;;;;0.60;0.50;;;20.20;59.00;;;;;;6269622;28;20021;-78
2022/10/20 04:34:07;;;;;;;1.02;0.60;;;20.30;59.00;;;;;;6260880;28;20159;-77
2022/10/20 04:37:08;;;;;;;0.70;0.60;;;20.30;59.00;;;;;;6245680;28;20017;-77
2022/10/20 04:40:09;;;;;;;0.30;0.30;;;20.30;59.10;;;;;;6246906;28;20057;-77
2022/10/20 04:43:11;;;;;;;0.80;0.70;;;20.30;59.10;;;;;;6246280;28;20024;-76
2022/10/20 04:46:11;;;;;;;0.60;0.50;;;20.30;59.00;;;;;;6245682;28;20051;-76
2022/10/20 04:49:12;;;;;;;0.50;0.43;;;20.30;59.00;;;;;;6245450;28;20065;-75
2022/10/20 04:52:13;;;;;;;0.70;0.50;;;20.20;59.00;;;;;;6246359;28;20038;-76
2022/10/20 04:55:14;;;;;;;0.70;0.60;;;20.20;59.00;;;;;;6244281;28;20502;-76
2022/10/20 04:58:14;;;;;;;0.75;0.55;;;20.20;59.00;;;;;;6244497;28;20036;-75
2022/10/20 05:01:16;;;;;;;0.98;0.70;;;20.20;59.00;;;;;;6245880;28;20021;-76
2022/10/20 05:04:20;;;;;;;0.60;0.60;;;20.30;59.00;;;;;;6246415;28;20064;-76
2022/10/20 05:07:20;;;;;;;0.93;0.63;;;20.20;59.00;;;;;;6245233;28;20490;-77
2022/10/20 05:10:21;;;;;;;0.80;0.50;;;20.30;59.00;;;;;;6261905;28;20082;-76
2022/10/20 05:13:24;;;;;;;0.50;0.50;;;20.30;59.00;;;;;;6269446;28;20517;-76
2022/10/20 05:16:28;;;;;;;1.05;0.70;;;20.20;58.90;;;;;;6268758;28;20047;-76
2022/10/20 05:19:29;;;;;;;0.50;0.50;;;20.20;58.90;;;;;;6268369;28;20029;-77
2022/10/20 05:22:31;;;;;;;0.75;0.65;;;20.20;59.00;;;;;;6269460;28;20021;-76
2022/10/20 05:25:32;;;;;;;0.80;0.52;;;20.20;58.90;;;;;;6268477;28;20033;-77
2022/10/20 05:28:32;;;;;;;0.70;0.68;;;20.20;58.90;;;;;;6267609;28;20063;-76
2022/10/20 05:31:51;;;;;;;0.65;0.38;;;20.20;58.90;;;;;;6269174;28;20551;-76
2022/10/20 05:34:52;;;;;;;0.55;0.50;;;20.20;58.90;;;;;;6269480;28;20048;-76
2022/10/20 05:37:54;;;;;;;0.88;0.68;;;20.20;58.80;;;;;;6269644;28;20060;-77
2022/10/20 05:41:03;;;;;;;1.52;0.80;;;20.20;58.90;;;;;;6269405;28;20143;-77
2022/10/20 05:44:07;;;;;;;0.65;0.60;;;20.20;58.80;;;;;;6270235;28;20115;-76
2022/10/20 05:47:08;;;;;;;0.93;0.60;;;20.20;58.90;;;;;;6273111;28;20449;-77
2022/10/20 05:50:09;;;;;;;0.88;0.65;;;20.20;58.90;;;;;;6274086;28;20049;-75
2022/10/20 05:53:10;;;;;;;1.00;0.60;;;20.20;58.90;;;;;;6272731;28;20025;-76
2022/10/20 05:56:16;;;;;;;0.68;0.50;;;20.20;58.80;;;;;;6272833;28;20043;-76
2022/10/20 05:59:17;;;;;;;0.50;0.50;;;20.20;58.90;;;;;;6272845;28;20417;-76
2022/10/20 06:02:18;;;;;;;0.80;0.60;;;20.20;58.90;;;;;;6299897;28;20036;-77
2022/10/20 06:05:18;;;;;;;0.98;0.50;;;20.20;58.80;;;;;;6300484;28;20042;-77
2022/10/20 06:08:19;;;;;;;0.80;0.63;;;20.20;58.80;;;;;;6299108;28;20043;-75
2022/10/20 06:11:22;;;;;;;0.40;0.40;;;20.20;58.90;;;;;;6258170;28;20809;-76
2022/10/20 06:14:24;;;;;;;0.75;0.50;;;20.20;58.80;;;;;;6258471;28;20033;-77
2022/10/20 06:17:25;;;;;;;0.50;0.50;;;20.20;58.90;;;;;;6276757;28;20020;-79
2022/10/20 06:20:27;;;;;;;1.02;0.60;;;20.20;58.80;;;;;;6301040;28;20037;-78
2022/10/20 06:23:28;;;;;;;4.38;0.77;;;20.20;58.80;;;;;;6293022;28;20065;-78
2022/10/20 06:26:31;;;;;;;0.98;0.70;;;20.20;58.80;;;;;;6281407;28;20054;-77
2022/10/20 06:29:32;;;;;;;1.00;0.70;;;20.20;58.80;;;;;;6287702;28;20039;-76
2022/10/20 06:32:33;;;;;;;1.40;1.00;;;20.20;58.80;;;;;;6301956;28;20064;-78
2022/10/20 06:35:33;;;;;;;0.70;0.60;;;20.20;58.80;;;;;;6302035;28;20047;-78
2022/10/20 06:38:35;;;;;;;0.55;0.55;;;20.20;58.80;;;;;;6275039;28;20037;-77
2022/10/20 06:41:35;;;;;;;0.88;0.70;;;20.20;58.80;;;;;;6253151;28;20032;-78
2022/10/20 06:44:37;;;;;;;1.38;0.80;;;20.20;58.80;;;;;;6264086;28;20029;-77
2022/10/20 06:47:38;;;;;;;1.13;0.60;;;20.20;58.80;;;;;;6278961;28;20065;-78
2022/10/20 06:50:39;;;;;;;1.60;0.70;;;20.20;58.70;;;;;;6260900;28;20049;-78
2022/10/20 06:53:41;;;;;;;1.85;0.70;;;20.20;58.80;;;;;;6252261;28;20418;-74
2022/10/20 06:56:42;;;;;;;0.77;0.57;;;20.20;58.70;;;;;;6247084;28;20021;-74
2022/10/20 06:59:43;;;;;;;0.75;0.60;;;20.20;58.80;;;;;;6253916;28;20029;-74
2022/10/20 07:02:45;;;;;;;1.08;0.70;;;20.20;58.70;;;;;;6274970;28;20071;-74
2022/10/20 07:05:47;;;;;;;1.10;0.73;;;20.30;58.80;;;;;;6271372;28;20040;-73
2022/10/20 07:08:49;;;;;;;0.77;0.63;;;20.20;58.80;;;;;;6267704;28;20013;-73
2022/10/20 07:11:51;;;;;;;1.83;0.80;;;20.20;58.80;;;;;;6237642;28;20036;-74
2022/10/20 07:14:52;;;;;;;1.52;0.60;;;20.20;58.90;;;;;;6253746;28;20021;-74
2022/10/20 07:17:52;;;;;;;0.82;0.52;;;20.20;58.80;;;;;;6272240;28;20134;-74
2022/10/20 07:21:03;;;;;;;1.00;0.60;;;20.20;58.80;;;;;;6256709;28;20483;-75
2022/10/20 07:24:05;;;;;;;0.98;0.60;;;20.20;58.80;;;;;;6259933;28;20021;-73
2022/10/20 07:27:06;;;;;;;0.82;0.70;;;20.30;58.90;;;;;;6269672;28;20109;-73
2022/10/20 07:30:07;;;;;;;1.30;0.88;;;20.30;58.90;;;;;;6267012;28;20076;-73
2022/10/20 07:33:08;;;;;;;0.85;0.77;;;20.20;58.80;;;;;;6266591;28;20028;-73
2022/10/20 07:36:18;;;;;;;1.00;0.80;;;20.30;58.90;;;;;;6262022;28;20025;-73
2022/10/20 07:39:19;;;;;;;0.90;0.50;;;20.20;58.70;;;;;;6247273;28;20490;-73
2022/10/20 07:42:20;;;;;;;1.00;0.75;;;20.30;58.60;;;;;;6253425;28;20048;-73
2022/10/20 07:45:20;;;;;;;1.52;0.70;;;20.30;58.60;;;;;;6264796;28;20146;-74
2022/10/20 07:48:21;;;;;;;1.60;0.70;;;20.30;58.50;;;;;;6258537;28;20025;-74
2022/10/20 07:51:24;;;;;;;1.00;0.70;;;20.30;58.40;;;;;;6269333;28;20556;-74
2022/10/20 07:54:25;;;;;;;0.90;0.60;;;20.40;58.40;;;;;;6293488;28;20032;-74
2022/10/20 07:57:26;;;;;;;1.08;0.70;;;20.40;58.30;;;;;;6292916;28;20033;-74
2022/10/20 08:00:26;;;;;;;3.03;0.77;;;20.40;58.30;;;;;;6276344;28;20413;-74
2022/10/20 08:03:27;;;;;;;1.08;0.55;;;20.40;58.20;;;;;;6293033;28;20037;-74
2022/10/20 08:06:28;;;;;;;0.90;0.70;;;20.40;58.10;;;;;;6292395;28;20648;-74
2022/10/20 08:09:28;;;;;;;1.00;0.75;;;20.40;58.10;;;;;;6291162;28;20455;-73
2022/10/20 08:12:29;;;;;;;2.70;0.52;;;20.40;58.40;;;;;;6281473;28;20525;-74
2022/10/20 08:15:30;;;;;;;1.00;0.73;;;20.40;58.50;;;;;;6251895;28;20033;-74
2022/10/20 08:18:30;;;;;;;2.22;0.70;;;20.30;58.50;;;;;;6276348;28;20021;-73
2022/10/20 08:21:31;;;;;;;3.13;0.95;;;20.30;58.60;;;;;;6290831;28;20385;-74
2022/10/20 08:24:32;;;;;;;4.75;0.73;;;20.30;58.60;;;;;;6244919;28;20121;-73
2022/10/20 08:27:33;;;;;;;2.53;1.25;;;20.30;58.70;;;;;;6259060;28;20437;-73
2022/10/20 08:30:34;;;;;;;3.65;0.73;;;20.30;58.70;;;;;;6261271;28;20041;-73
2022/10/20 08:33:35;;;;;;;1.10;0.77;;;20.30;58.70;;;;;;6267948;28;20028;-74
2022/10/20 08:36:36;;;;;;;1.05;0.80;;;20.30;58.70;;;;;;6263875;28;20029;-73
2022/10/20 08:39:36;;;;;;;1.33;0.70;;;20.30;58.70;;;;;;6246004;28;20405;-73
2022/10/20 08:42:41;;;;;;;2.20;0.90;;;20.30;58.70;;;;;;6245060;28;20029;-73
2022/10/20 08:45:41;;;;;;;1.30;0.80;;;20.30;58.70;;;;;;6242869;28;20035;-73
2022/10/20 08:48:44;;;;;;;1.60;0.95;;;20.30;58.70;;;;;;6257395;28;20038;-73
2022/10/20 08:51:45;;;;;;;1.42;0.80;;;20.30;58.70;;;;;;6249058;28;20490;-74
2022/10/20 08:54:50;;;;;;;2.47;1.00;;;20.30;58.70;;;;;;6269009;28;20055;-73
2022/10/20 08:57:51;;;;;;;1.95;0.77;;;20.30;58.70;;;;;;6255512;28;20017;-73
2022/10/20 09:01:04;;;;;;;1.23;0.80;;;20.30;58.70;;;;;;6243894;28;20450;-72
2022/10/20 09:04:34;;;;;;;2.20;1.20;;;20.30;58.80;;;;;;6244041;28;20033;-73
2022/10/20 09:07:37;;;;;;;4.93;1.10;;;20.20;58.20;;;;;;6252832;28;20037;-73
2022/10/20 09:10:41;;;;;;;3.10;1.38;;;20.30;57.50;;;;;;6269540;28;20087;-72
2022/10/20 09:13:43;;;;;;;2.43;0.90;;;20.20;57.10;;;;;;6249512;28;20049;-72
2022/10/20 09:16:46;;;;;;;7.53;1.50;;;20.20;57.80;;;;;;6256746;28;20759;-74
2022/10/20 09:19:53;;;;;;;6.30;1.55;;;20.20;57.70;;;;;;6275913;28;20025;-74
2022/10/20 09:22:54;;;;;;;6.05;2.30;;;20.20;57.20;;;;;;6281860;28;20115;-73
2022/10/20 09:25:55;;;;;;;8.50;2.30;;;20.20;55.60;;;;;;6302820;28;20042;-73
2022/10/20 09:29:11;;;;;;;8.68;2.28;;;20.30;55.60;;;;;;6285775;28;20100;-73
2022/10/20 09:32:31;;;;;;;11.60;2.00;;;20.30;55.60;;;;;;6276778;28;20051;-72
2022/10/20 09:35:35;;;;;;;10.90;2.03;;;20.30;55.60;;;;;;6276795;28;20028;-72
2022/10/20 09:38:40;;;;;;;10.60;2.25;;;20.30;55.90;;;;;;6277525;28;20064;-73
2022/10/20 09:41:41;;;;;;;;;;;20.30;56.60;;;;;;6277528;28;20057;-73
2022/10/20 09:44:53;;;;;;;4.78;2.00;;;20.30;55.90;;;;;;6277685;28;20557;-73
2022/10/20 09:48:01;;;;;;;5.75;2.00;;;20.30;56.00;;;;;;6271219;28;20029;-72
2022/10/20 09:51:04;;;;;;;4.40;1.75;;;20.30;56.30;;;;;;6253215;28;20065;-73
2022/10/20 09:54:17;;;;;;;5.07;1.80;;;20.30;56.40;;;;;;6268354;28;20424;-74
2022/10/20 09:57:20;;;;;;;3.25;1.63;;;20.30;56.50;;;;;;6276729;28;20052;-73
2022/10/20 10:00:25;;;;;;;6.68;1.63;;;20.30;56.50;;;;;;6253206;28;20083;-73
2022/10/20 10:03:26;;;;;;;;;;;20.30;56.70;;;;;;6274003;28;20025;-72
2022/10/20 10:06:36;;;;;;;4.10;1.65;;;20.30;56.40;;;;;;6278115;28;20511;-72
2022/10/20 10:09:37;;;;;;;6.47;2.28;;;20.30;56.40;;;;;;6267207;28;20025;-72
2022/10/20 10:12:37;;;;;;;2.95;1.80;;;20.30;56.50;;;;;;6255558;28;20071;-73
2022/10/20 10:15:39;;;;;;;5.55;2.05;;;20.30;56.60;;;;;;6277937;28;20032;-73
2022/10/20 10:18:43;;;;;;;3.75;1.92;;;20.30;56.70;;;;;;6277601;28;20056;-73
2022/10/20 10:22:07;;;;;;;3.25;1.67;;;20.30;56.80;;;;;;6274791;28;20665;-73
2022/10/20 10:25:24;;;;;;;3.35;1.70;;;20.30;57.00;;;;;;6252698;28;20065;-73
2022/10/20 10:28:25;;;;;;;2.78;1.70;;;20.30;57.00;;;;;;6252601;28;20439;-73
2022/10/20 10:31:26;;;;;;;6.95;1.83;;;20.30;57.00;;;;;;6248668;28;20074;-73
2022/10/20 10:34:46;;;;;;;5.70;2.08;;;20.30;57.20;;;;;;6252939;28;20022;-73
2022/10/20 10:37:47;;;;;;;3.05;1.52;;;20.20;57.20;;;;;;6247696;28;20487;-72
2022/10/20 10:41:11;;;;;;;4.35;1.85;;;20.30;57.30;;;;;;6246998;28;20056;-73
2022/10/20 10:44:19;;;;;;;2.60;1.50;;;20.30;57.30;;;;;;6241572;28;20037;-72
2022/10/20 10:47:53;;;;;;;2.97;1.52;;;20.30;57.30;;;;;;6253691;28;20025;-73
2022/10/20 10:50:58;;;;;;;4.30;1.60;;;20.30;57.40;;;;;;6246184;28;20414;-73
2022/10/20 10:54:06;;;;;;;3.00;1.85;;;20.30;57.50;;;;;;6253675;28;20029;-73
2022/10/20 10:57:43;;;;;;;3.03;1.60;;;20.30;57.50;;;;;;6271718;28;20371;-73
2022/10/20 11:01:13;;;;;;;2.35;1.55;;;20.30;57.50;;;;;;6238835;28;20048;-73
2022/10/20 11:04:43;;;;;;;3.97;1.70;;;20.30;57.40;;;;;;6270522;28;20108;-72
2022/10/20 11:07:52;;;;;;;5.38;1.55;;;20.30;57.50;;;;;;6253776;28;20072;-73
2022/10/20 11:11:31;;;;;;;2.58;1.40;;;20.30;57.50;;;;;;6251842;28;20040;-73
2022/10/20 11:14:52;;;;;;;2.05;1.23;;;20.30;57.50;;;;;;6252005;28;20075;-73
2022/10/20 11:18:39;;;;;;;2.70;1.48;;;20.30;57.60;;;;;;6271208;28;20051;-73
2022/10/20 11:22:09;;;;;;;2.08;1.30;;;20.30;57.70;;;;;;6234547;28;20406;-73
2022/10/20 11:25:15;;;;;;;2.75;1.35;;;20.30;57.70;;;;;;6278637;28;20032;-73
2022/10/20 11:28:43;;;;;;;3.55;1.50;;;20.30;57.70;;;;;;6296239;28;20493;-73
2022/10/20 11:32:01;;;;;;;2.17;1.17;;;20.30;57.70;;;;;;6255432;28;20033;-73
2022/10/20 11:35:23;;;;;;;2.30;1.63;;;20.30;57.60;;;;;;6252052;28;20017;-73
2022/10/20 11:38:40;;;;;;;2.80;1.40;;;20.30;57.70;;;;;;6270915;28;20556;-73
2022/10/20 11:41:49;;;;;;;2.38;1.38;;;20.30;57.60;;;;;;6262664;28;20043;-73
2022/10/20 11:44:52;;;;;;;3.92;1.70;;;20.30;57.70;;;;;;6249450;28;20025;-73
2022/10/20 11:48:16;;;;;;;1.88;1.50;;;20.30;57.70;;;;;;6270625;28;20029;-73
2022/10/20 11:51:28;;;;;;;2.25;1.30;;;20.30;57.70;;;;;;6256702;28;20041;-73
2022/10/20 11:54:47;;;;;;;1.73;1.02;;;20.30;57.70;;;;;;6246185;28;20021;-73
2022/10/20 11:58:07;;;;;;;4.10;1.63;;;20.30;57.70;;;;;;6247704;28;20071;-73
2022/10/20 12:01:29;;;;;;;3.78;1.33;;;20.30;57.70;;;;;;6259828;28;20082;-73
2022/10/20 12:04:56;;;;;;;2.03;1.55;;;20.30;57.70;;;;;;6272542;28;20033;-73
2022/10/20 12:08:31;;;;;;;3.10;1.60;;;20.30;57.80;;;;;;6247188;28;20064;-73
2022/10/20 12:11:41;;;;;;;1.80;1.23;;;20.30;57.80;;;;;;6246770;28;20033;-73
2022/10/20 12:14:48;;;;;;;1.42;1.10;;;20.30;57.90;;;;;;6246697;28;20347;-73
2022/10/20 12:17:51;;;;;;;2.05;1.30;;;20.30;57.80;;;;;;6270020;28;20474;-72
2022/10/20 12:21:01;;;;;;;2.50;1.20;;;20.30;58.50;;;;;;6271434;28;20032;-73
2022/10/20 12:24:02;;;;;;;1.80;1.20;;;20.30;57.80;;;;;;6261391;28;20096;-74
2022/10/20 12:27:08;;;;;;;1.75;1.00;;;20.30;57.60;;;;;;6259962;28;20509;-73
2022/10/20 12:30:35;;;;;;;2.17;1.13;;;20.30;57.90;;;;;;6271493;28;20104;-73
2022/10/20 12:34:02;;;;;;;1.52;1.15;;;20.30;57.80;;;;;;6270888;28;20025;-73
2022/10/20 12:37:17;;;;;;;2.55;1.20;;;20.30;57.80;;;;;;6256379;28;20025;-73
2022/10/20 12:40:44;;;;;;;1.83;1.30;;;20.30;57.90;;;;;;6247299;28;20386;-73
2022/10/20 12:43:51;;;;;;;1.50;0.90;;;20.30;57.90;;;;;;6245703;28;20040;-73
2022/10/20 12:47:05;;;;;;;1.45;1.20;;;20.30;57.90;;;;;;6254651;28;20028;-73
2022/10/20 12:50:20;;;;;;;1.50;1.08;;;20.30;57.90;;;;;;6266258;28;20056;-73
2022/10/20 12:53:29;;;;;;;1.85;1.30;;;20.30;57.90;;;;;;6267728;28;20017;-74
2022/10/20 12:56:38;;;;;;;3.22;1.50;;;20.30;58.00;;;;;;6268080;28;20753;-73
2022/10/20 12:59:39;;;;;;;2.60;1.48;;;20.30;57.90;;;;;;6269997;28;20024;-73
2022/10/20 13:02:45;;;;;;;4.60;1.45;;;20.30;58.00;;;;;;6269729;28;20036;-73
2022/10/20 13:05:47;;;;;;;4.82;1.25;;;20.30;57.90;;;;;;6269798;28;20023;-73
2022/10/20 13:09:03;;;;;;;2.25;1.77;;;20.30;58.00;;;;;;6266158;28;20022;-73
2022/10/20 13:12:27;;;;;;;2.15;1.30;;;20.30;58.10;;;;;;6244158;28;20037;-74
2022/10/20 13:15:34;;;;;;;3.03;1.85;;;20.30;58.90;;;;;;6244596;28;20013;-73
2022/10/20 13:18:42;;;;;;;3.28;2.03;;;20.30;58.30;;;;;;6244967;28;20421;-73
2022/10/20 13:21:44;;;;;;;3.45;2.15;;;20.30;58.30;;;;;;6246870;28;20044;-73
2022/10/20 13:24:45;;;;;;;3.28;1.42;;;20.30;59.10;;;;;;6269325;28;20108;-73
2022/10/20 13:27:48;;;;;;;5.53;1.58;;;20.30;58.40;;;;;;6257805;28;20026;-73
2022/10/20 13:31:08;;;;;;;3.05;1.88;;;20.30;58.50;;;;;;6245198;28;20068;-72
2022/10/20 13:34:14;;;;;;;1.92;1.30;;;20.30;58.50;;;;;;6245671;28;20057;-70
2022/10/20 13:37:24;;;;;;;2.53;1.60;;;20.30;58.60;;;;;;6245069;28;20096;-70
2022/10/20 13:40:51;;;;;;;3.22;1.60;;;20.30;58.70;;;;;;6245809;28;20160;-71
2022/10/20 13:44:31;;;;;;;4.45;1.65;;;20.30;58.60;;;;;;6226082;28;20033;-71
2022/10/20 13:48:04;;;;;;;2.33;1.25;;;20.30;58.60;;;;;;6243677;28;20069;-71
2022/10/20 13:51:10;;;;;;;3.67;1.52;;;20.30;58.70;;;;;;6242209;28;20046;-71
2022/10/20 13:54:43;;;;;;;1.85;1.40;;;20.30;58.70;;;;;;6245262;28;20026;-71
2022/10/20 13:58:03;;;;;;;2.83;1.42;;;20.30;58.60;;;;;;6237337;28;20068;-71
2022/10/20 14:01:18;;;;;;;1.88;1.27;;;20.30;58.60;;;;;;6244276;28;20053;-70
2022/10/20 14:04:29;;;;;;;1.65;1.40;;;20.30;58.60;;;;;;6244558;28;20029;-70
2022/10/20 14:07:41;;;;;;;2.95;1.58;;;20.30;58.50;;;;;;6249887;28;20087;-71
2022/10/20 14:10:58;;;;;;;2.72;1.35;;;20.30;58.50;;;;;;6248740;28;20026;-71
2022/10/20 14:14:00;;;;;;;1.60;1.00;;;20.30;58.50;;;;;;6248698;28;20095;-71
2022/10/20 14:17:05;;;;;;;2.08;1.20;;;20.30;58.50;;;;;;6248201;28;20034;-70
2022/10/20 14:20:19;;;;;;;1.75;1.10;;;20.30;58.60;;;;;;6249576;28;20030;-72
2022/10/20 14:23:22;;;;;;;2.67;1.20;;;20.30;58.60;;;;;;6264369;28;20025;-73
2022/10/20 14:26:23;;;;;;;2.15;1.15;;;20.30;58.50;;;;;;6263288;28;20017;-75
2022/10/20 14:29:28;;;;;;;2.78;1.00;;;20.30;58.50;;;;;;6248988;28;20040;-73
2022/10/20 14:32:34;;;;;;;1.55;1.00;;;20.30;58.60;;;;;;6266142;28;20044;-72
2022/10/20 14:35:47;;;;;;;2.00;1.20;;;20.30;58.70;;;;;;6248733;28;20083;-75
2022/10/20 14:38:51;;;;;;;1.45;0.80;;;20.30;58.70;;;;;;6248374;28;20018;-74
2022/10/20 14:41:56;;;;;;;1.95;1.30;;;20.30;58.70;;;;;;6247271;28;20029;-73
2022/10/20 14:44:58;;;;;;;2.83;1.40;;;20.30;58.50;;;;;;6253071;28;20040;-73
2022/10/20 14:48:00;;;;;;;1.15;0.90;;;20.30;58.60;;;;;;6247016;28;20044;-72
2022/10/20 14:51:01;;;;;;;1.00;0.80;;;20.20;58.60;;;;;;6271938;28;20049;-72
2022/10/20 14:54:19;;;;;;;1.80;1.20;;;20.30;58.60;;;;;;6261986;28;20024;-72
2022/10/20 14:57:19;;;;;;;2.20;1.25;;;20.30;58.60;;;;;;6247717;28;20028;-73
2022/10/20 15:00:32;;;;;;;2.85;1.10;;;20.30;58.70;;;;;;6246201;28;20390;-72
2022/10/20 15:03:35;;;;;;;3.45;1.30;;;20.30;58.70;;;;;;6250945;28;20078;-72
2022/10/20 15:06:36;;;;;;;3.00;1.23;;;20.30;58.60;;;;;;6270691;28;20021;-72
2022/10/20 15:10:01;;;;;;;2.25;1.25;;;20.30;58.50;;;;;;6261742;28;20053;-72
2022/10/20 15:13:02;;;;;;;1.83;1.20;;;20.30;58.50;;;;;;6237964;28;20072;-72
2022/10/20 15:16:03;;;;;;;1.27;1.05;;;20.30;58.50;;;;;;6268132;28;20033;-72
2022/10/20 15:19:30;;;;;;;7.07;1.23;;;20.30;58.60;;;;;;6262030;28;20033;-70
2022/10/20 15:22:31;;;;;;;2.58;1.40;;;20.30;58.60;;;;;;6258574;28;20071;-72
2022/10/20 15:25:46;;;;;;;3.00;1.20;;;20.30;58.60;;;;;;6256015;28;20025;-73
2022/10/20 15:28:49;;;;;;;1.52;1.17;;;20.20;59.10;;;;;;6245296;28;20116;-73
2022/10/20 15:31:50;;;;;;;2.22;1.30;;;20.30;58.50;;;;;;6271566;28;20021;-73
2022/10/20 15:34:51;;;;;;;1.80;1.25;;;20.30;58.50;;;;;;6256195;28;20401;-72
2022/10/20 15:37:52;;;;;;;2.50;1.00;;;20.30;58.50;;;;;;6272398;28;20048;-72
2022/10/20 15:40:58;;;;;;;1.73;0.90;;;20.30;58.70;;;;;;6258839;28;20036;-73
2022/10/20 15:44:13;;;;;;;1.60;1.15;;;20.30;58.60;;;;;;6266963;28;20028;-73
2022/10/20 15:47:14;;;;;;;1.85;1.10;;;20.30;58.60;;;;;;6266333;28;20021;-74
2022/10/20 15:50:15;;;;;;;2.78;1.10;;;20.30;58.60;;;;;;6271007;28;20045;-73
2022/10/20 15:53:17;;;;;;;1.42;0.90;;;20.30;58.60;;;;;;6271351;28;20501;-74
2022/10/20 15:56:18;;;;;;;1.98;1.25;;;20.30;58.60;;;;;;6269338;28;20108;-73
2022/10/20 15:59:19;;;;;;;5.00;1.10;;;20.30;58.70;;;;;;6271499;28;20027;-73
2022/10/20 16:02:20;;;;;;;2.03;1.02;;;20.30;58.60;;;;;;6270989;28;20518;-75
2022/10/20 16:05:22;;;;;;;1.98;0.90;;;20.30;58.70;;;;;;6262463;28;20050;-73
2022/10/20 16:08:23;;;;;;;2.97;0.90;;;20.20;58.60;;;;;;6258227;28;20033;-73
2022/10/20 16:11:24;;;;;;;1.42;1.00;;;20.30;58.60;;;;;;6256835;28;20529;-73